Time;durP1;ratioP1;P1;durP2;ratioP2;P2;SDS_P1;SDS_P2;PMS_P1;PMS_P2;Temp;Humidity;BMP_temperature;BMP_pressure;BME280_temperature;BME280_humidity;BME280_pressure;Samples;Min_cycle;Max_cycle;Signal;HPM_P1;HPM_P2
2021/04/11 00:01:01;;;;;;;31.27;19.77;;;;;;;4.74;48.82;100468.22;1761079;80;21141;-63
2021/04/11 00:03:28;;;;;;;29.30;18.60;;;;;;;4.74;48.64;100466.88;1750741;80;21173;-63
2021/04/11 00:05:56;;;;;;;31.55;18.75;;;;;;;4.72;48.52;100465.73;1776423;80;21168;-63
2021/04/11 00:08:23;;;;;;;32.00;19.65;;;;;;;4.70;48.70;100469.70;1780066;80;21646;-63
2021/04/11 00:10:56;;;;;;;29.92;18.85;;;;;;;4.64;48.94;100468.67;1781576;80;21125;-63
2021/04/11 00:13:36;;;;;;;27.75;17.95;;;;;;;4.62;48.86;100468.59;1781735;80;21207;-63
2021/04/11 00:16:04;;;;;;;28.40;17.70;;;;;;;4.61;48.89;100469.10;1781866;80;21145;-64
2021/04/11 00:18:31;;;;;;;31.42;17.50;;;;;;;4.59;48.93;100474.41;1771024;80;21121;-63
2021/04/11 00:21:03;;;;;;;29.98;16.30;;;;;;;4.53;48.96;100471.52;1760028;80;21161;-63
2021/04/11 00:23:32;;;;;;;29.32;17.12;;;;;;;4.50;48.99;100474.66;1759495;80;21151;-63
2021/04/11 00:25:59;;;;;;;27.02;17.15;;;;;;;4.48;49.11;100474.05;1759168;80;21125;-63
2021/04/11 00:28:27;;;;;;;28.23;16.75;;;;;;;4.44;49.19;100474.69;1753492;80;21118;-63
2021/04/11 00:30:56;;;;;;;27.93;17.92;;;;;;;4.40;49.24;100478.84;1742765;80;21113;-63
2021/04/11 00:33:32;;;;;;;28.12;17.60;;;;;;;4.34;49.50;100472.45;1766424;80;21185;-63
2021/04/11 00:36:04;;;;;;;26.57;17.23;;;;;;;4.31;49.64;100476.92;1779004;80;21168;-63
2021/04/11 00:38:32;;;;;;;28.62;17.65;;;;;;;4.28;49.73;100474.66;1769791;80;21149;-63
2021/04/11 00:41:31;;;;;;;25.45;16.48;;;;;;;4.26;49.74;100475.89;1757355;80;21164;-63
2021/04/11 00:43:59;;;;;;;25.43;16.50;;;;;;;4.23;49.75;100483.06;1730219;81;21185;-62
2021/04/11 00:46:53;;;;;;;28.25;16.50;;;;;;;4.16;49.95;100484.44;1701507;83;21169;-62
2021/04/11 00:49:39;;;;;;;30.05;17.00;;;;;;;4.14;50.03;100482.48;1718617;81;21172;-62
2021/04/11 00:52:10;;;;;;;30.12;16.82;;;;;;;4.08;50.06;100490.05;1665879;84;21645;-62
2021/04/11 00:54:37;;;;;;;27.52;17.17;;;;;;;3.96;50.13;100475.07;1705186;83;21224;-62
2021/04/11 00:57:08;;;;;;;27.60;17.05;;;;;;;4.01;50.33;100493.27;1684815;85;21490;-62
2021/04/11 00:59:36;;;;;;;26.57;16.65;;;;;;;3.97;50.54;100492.03;1747628;82;21145;-62
2021/04/11 01:02:04;;;;;;;28.45;16.75;;;;;;;3.94;50.66;100488.42;1716877;82;21184;-62
2021/04/11 01:04:32;;;;;;;24.23;15.45;;;;;;;3.91;50.61;100490.19;1741597;82;21219;-62
2021/04/11 01:07:06;;;;;;;25.00;15.18;;;;;;;3.89;50.52;100490.42;1742695;82;21597;-62
2021/04/11 01:09:40;;;;;;;28.65;15.30;;;;;;;3.84;50.59;100488.86;1717851;82;21206;-62
2021/04/11 01:12:10;;;;;;;26.30;15.98;;;;;;;3.82;50.65;100486.08;1721461;82;21130;-62
2021/04/11 01:14:41;;;;;;;26.80;15.48;;;;;;;3.76;50.78;100492.28;1718722;82;21141;-62
2021/04/11 01:17:13;;;;;;;26.02;15.05;;;;;;;3.72;50.82;100485.68;1747613;82;21121;-62
2021/04/11 01:19:43;;;;;;;26.60;15.75;;;;;;;3.66;51.08;100486.49;1716804;82;21141;-62
2021/04/11 01:22:41;;;;;;;24.70;14.95;;;;;;;3.61;51.22;100500.61;1747721;82;21702;-62
2021/04/11 01:25:14;;;;;;;29.05;16.05;;;;;;;3.54;51.34;100502.98;1747233;82;21161;-62
2021/04/11 01:27:43;;;;;;;30.85;16.10;;;;;;;3.46;51.55;100494.08;1744922;82;21195;-62
2021/04/11 01:30:25;;;;;;;25.52;15.78;;;;;;;3.44;51.77;100498.83;1747596;82;21144;-62
2021/04/11 01:33:01;;;;;;;29.60;19.30;;;;;;;3.45;51.89;100496.97;1779843;79;39315;-61
2021/04/11 01:35:30;;;;;;;27.32;16.52;;;;;;;3.65;51.51;100495.63;1726308;82;21562;-62
2021/04/11 01:37:59;;;;;;;25.32;16.20;;;;;;;3.78;51.11;100495.61;1699915;83;21199;-62
2021/04/11 01:41:05;;;;;;;23.92;14.65;;;;;;;3.67;51.24;100494.37;1728181;82;21181;-62
2021/04/11 01:43:35;;;;;;;27.93;16.05;;;;;;;3.62;51.48;100496.85;1705741;83;21482;-62
2021/04/11 01:46:07;;;;;;;27.13;16.37;;;;;;;3.46;51.64;100498.12;1699363;83;21334;-62
2021/04/11 01:48:35;;;;;;;29.95;16.70;;;;;;;3.40;51.88;100494.89;1744363;82;21180;-62
2021/04/11 01:51:06;;;;;;;32.63;17.82;;;;;;;3.33;52.25;100495.40;1728296;82;21184;-62
2021/04/11 01:53:34;;;;;;;29.63;17.10;;;;;;;3.29;52.55;100505.46;1717582;82;21180;-62
2021/04/11 01:56:02;;;;;;;28.40;17.42;;;;;;;3.25;52.77;100496.14;1703441;82;21180;-62
2021/04/11 01:58:30;;;;;;;28.90;17.57;;;;;;;3.18;53.03;100503.38;1755879;82;21205;-62
2021/04/11 02:01:16;;;;;;;29.80;16.35;;;;;;;3.16;53.11;100500.05;1752364;81;21601;-62
2021/04/11 02:03:44;;;;;;;27.52;16.90;;;;;;;3.10;53.22;100504.91;1722320;82;21639;-62
2021/04/11 02:06:13;;;;;;;26.23;17.15;;;;;;;3.02;53.47;100499.20;1727825;82;21267;-62
2021/04/11 02:08:49;;;;;;;30.15;16.95;;;;;;;2.94;53.63;100501.56;1710170;83;21641;-61
2021/04/11 02:11:18;;;;;;;27.13;16.00;;;;;;;2.90;53.74;100500.84;1749024;82;21172;-61
2021/04/11 02:13:45;;;;;;;30.50;17.92;;;;;;;2.82;53.87;100501.86;1755521;82;21555;-61
2021/04/11 02:16:26;;;;;;;26.65;16.73;;;;;;;2.77;54.11;100499.45;1753753;82;21180;-61
2021/04/11 02:19:07;;;;;;;30.50;16.62;;;;;;;2.71;54.33;100499.75;1742524;82;21164;-61
2021/04/11 02:21:34;;;;;;;29.75;17.00;;;;;;;2.66;54.50;100501.41;1751166;82;21168;-61
2021/04/11 02:24:06;;;;;;;28.10;16.93;;;;;;;2.49;54.76;100488.81;1746309;82;21302;-61
2021/04/11 02:26:38;;;;;;;28.77;17.05;;;;;;;2.58;54.95;100504.27;1725878;83;21148;-61
2021/04/11 02:29:15;;;;;;;33.33;17.85;;;;;;;2.51;55.22;100505.59;1725924;82;21233;-61
2021/04/11 02:31:43;;;;;;;29.48;17.10;;;;;;;2.48;55.30;100509.48;1726130;82;21868;-62
2021/04/11 02:34:24;;;;;;;29.10;17.65;;;;;;;2.44;55.53;100515.48;1724028;82;21657;-62
2021/04/11 02:37:09;;;;;;;27.27;17.77;;;;;;;2.42;55.64;100516.18;1718491;82;21214;-62
2021/04/11 02:39:40;;;;;;;34.27;17.87;;;;;;;2.36;55.72;100516.48;1699672;82;21488;-62
2021/04/11 02:42:15;;;;;;;29.40;17.67;;;;;;;2.32;55.83;100521.92;1721367;83;21204;-61
2021/04/11 02:44:46;;;;;;;29.00;17.35;;;;;;;2.27;56.01;100524.38;1743676;82;21153;-62
2021/04/11 02:47:15;;;;;;;30.57;18.52;;;;;;;2.29;56.26;100531.73;1714275;83;21167;-62
2021/04/11 02:49:44;;;;;;;29.98;18.85;;;;;;;2.28;56.44;100538.13;1712897;82;21164;-62
2021/04/11 02:52:37;;;;;;;33.58;18.95;;;;;;;2.32;56.54;100543.42;1721699;82;21588;-62
2021/04/11 02:55:07;;;;;;;34.35;20.10;;;;;;;2.33;56.68;100545.60;1696443;83;21306;-62
2021/04/11 02:57:35;;;;;;;35.45;20.85;;;;;;;2.33;56.67;100541.06;1696628;82;21595;-62
2021/04/11 03:00:09;;;;;;;34.10;21.40;;;;;;;2.36;56.58;100543.34;1722781;82;21657;-62
2021/04/11 03:02:38;;;;;;;36.38;20.10;;;;;;;2.41;56.52;100547.59;1720919;82;21227;-62
2021/04/11 03:05:10;;;;;;;33.95;20.80;;;;;;;2.44;56.24;100551.77;1750395;82;21302;-62
2021/04/11 03:07:48;;;;;;;32.55;20.02;;;;;;;2.49;56.04;100551.46;1750637;82;21148;-61
2021/04/11 03:10:43;;;;;;;34.23;19.75;;;;;;;2.50;56.00;100550.44;1722588;82;21330;-62
2021/04/11 03:13:12;;;;;;;30.75;19.20;;;;;;;2.51;55.96;100552.62;1750401;82;21194;-63
2021/04/11 03:15:41;;;;;;;35.38;20.62;;;;;;;2.49;56.05;100554.16;1750265;82;21173;-61
2021/04/11 03:18:09;;;;;;;34.15;20.45;;;;;;;2.53;55.99;100563.16;1728993;81;21125;-61
2021/04/11 03:20:38;;;;;;;33.83;20.43;;;;;;;2.51;56.09;100559.34;1723799;82;21177;-61
2021/04/11 03:23:16;;;;;;;33.23;20.30;;;;;;;2.56;56.05;100562.75;1767171;79;22531;-61
2021/04/11 03:25:43;;;;;;;31.37;20.02;;;;;;;2.48;56.07;100565.92;1710141;83;21640;-61
2021/04/11 03:28:26;;;;;;;31.35;19.42;;;;;;;2.48;56.22;100575.33;1676804;85;21314;-63
2021/04/11 03:31:17;;;;;;;30.70;18.80;;;;;;;2.45;56.28;100580.27;1661252;85;21151;-63
2021/04/11 03:33:46;;;;;;;31.10;18.23;;;;;;;2.44;56.28;100580.78;1655813;85;21354;-63
2021/04/11 03:36:18;;;;;;;29.07;18.17;;;;;;;2.39;56.40;100583.25;1675892;85;21338;-63
2021/04/11 03:38:49;;;;;;;29.57;18.60;;;;;;;2.40;56.42;100585.42;1668493;84;21172;-63
2021/04/11 03:41:17;;;;;;;31.12;19.52;;;;;;;2.37;56.66;100581.80;1668102;83;21616;-63
2021/04/11 03:43:51;;;;;;;32.95;19.10;;;;;;;2.37;56.72;100590.66;1693388;83;21630;-63
2021/04/11 03:46:29;;;;;;;30.20;18.50;;;;;;;2.36;56.93;100589.02;1719639;83;21121;-63
2021/04/11 03:49:04;;;;;;;32.23;18.30;;;;;;;2.41;56.70;100586.55;1715618;83;21488;-63
2021/04/11 03:51:35;;;;;;;30.57;18.15;;;;;;;2.43;56.64;100597.95;1718938;83;21201;-63
2021/04/11 03:54:14;;;;;;;31.77;18.87;;;;;;;2.46;56.52;100598.90;1717966;83;21164;-63
2021/04/11 03:56:45;;;;;;;28.27;17.82;;;;;;;2.48;56.66;100603.55;1719552;83;21589;-63
2021/04/11 03:59:18;;;;;;;28.67;17.73;;;;;;;2.53;56.56;100601.61;1717781;83;21604;-63
2021/04/11 04:01:54;;;;;;;28.60;18.23;;;;;;;2.64;56.50;100598.88;1797355;79;22354;-61
2021/04/11 04:04:24;;;;;;;34.27;19.05;;;;;;;2.73;56.31;100607.11;1760979;80;21343;-63
2021/04/11 04:07:07;;;;;;;31.25;19.40;;;;;;;2.89;55.88;100605.41;1755888;80;21196;-63
2021/04/11 04:09:38;;;;;;;31.10;19.23;;;;;;;3.09;55.63;100615.72;1761490;80;21177;-63
2021/04/11 04:12:27;;;;;;;29.90;18.73;;;;;;;3.34;55.07;100614.14;1760863;81;21149;-64
2021/04/11 04:15:26;;;;;;;31.12;18.70;;;;;;;3.58;54.26;100619.45;1760912;81;21205;-64
2021/04/11 04:18:08;;;;;;;30.90;18.67;;;;;;;3.80;53.83;100620.94;1760809;81;21169;-63
2021/04/11 04:20:54;;;;;;;29.15;18.55;;;;;;;3.97;53.35;100626.73;1758158;81;21278;-64
2021/04/11 04:23:55;;;;;;;28.67;18.40;;;;;;;4.08;53.11;100631.50;1761048;81;21206;-62
2021/04/11 04:27:01;;;;;;;29.77;17.12;;;;;;;4.16;52.88;100629.95;1699629;80;21823;-62
2021/04/11 04:30:04;;;;;;;28.32;17.70;;;;;;;4.27;52.47;100633.37;1761427;80;21133;-62
2021/04/11 04:32:38;;;;;;;29.98;18.77;;;;;;;4.48;52.33;100637.17;1760776;81;21168;-63
2021/04/11 04:35:29;;;;;;;26.62;17.30;;;;;;;4.73;51.66;100641.88;1768590;80;21336;-63
2021/04/11 04:38:22;;;;;;;32.05;21.30;;;;;;;4.97;51.07;100638.48;1760769;81;21208;-63
2021/04/11 04:41:23;;;;;;;27.80;17.35;;;;;;;5.21;50.28;100632.34;1731464;81;21172;-63
2021/04/11 04:44:08;;;;;;;24.15;16.60;;;;;;;5.43;49.45;100639.61;1695117;84;21293;-63
2021/04/11 04:46:45;;;;;;;28.62;17.42;;;;;;;5.61;48.57;100634.31;1745560;81;21177;-63
2021/04/11 04:49:19;;;;;;;26.70;18.95;;;;;;;5.75;48.11;100640.45;1724635;82;21764;-63
2021/04/11 04:51:56;;;;;;;26.77;17.65;;;;;;;5.83;48.11;100636.97;1759850;80;21117;-63
2021/04/11 04:54:29;;;;;;;28.05;18.00;;;;;;;5.94;48.19;100643.58;1760896;81;21152;-63
2021/04/11 04:57:12;;;;;;;25.97;16.17;;;;;;;6.13;47.94;100645.27;1760888;81;21181;-63
2021/04/11 04:59:48;;;;;;;28.05;17.80;;;;;;;6.29;46.83;100647.44;1789317;80;21181;-63
2021/04/11 05:02:17;;;;;;;32.95;21.48;;;;;;;6.41;46.65;100648.34;1761133;80;21125;-63
2021/04/11 05:04:54;;;;;;;31.90;20.35;;;;;;;6.49;46.44;100644.53;1777409;80;21121;-64
2021/04/11 05:07:23;;;;;;;25.30;16.45;;;;;;;6.59;46.45;100650.81;1755996;80;21168;-63
2021/04/11 05:09:59;;;;;;;25.15;16.57;;;;;;;6.70;46.48;100652.75;1770661;80;21253;-63
2021/04/11 05:12:39;;;;;;;28.70;17.92;;;;;;;6.91;46.86;100650.43;1789129;79;22412;-62
2021/04/11 05:15:15;;;;;;;27.02;16.10;;;;;;;7.03;46.40;100653.22;1760817;81;21189;-63
2021/04/11 05:18:07;;;;;;;25.25;16.02;;;;;;;7.21;46.01;100654.56;1784461;80;21291;-63
2021/04/11 05:20:42;;;;;;;24.07;16.15;;;;;;;7.38;45.53;100660.17;1761500;80;21153;-63
2021/04/11 05:23:30;;;;;;;24.55;15.80;;;;;;;7.48;45.24;100668.05;1792054;80;21206;-63
2021/04/11 05:26:20;;;;;;;23.80;15.75;;;;;;;7.61;45.06;100663.52;1763401;81;21610;-63
2021/04/11 05:28:58;;;;;;;27.13;15.63;;;;;;;7.75;44.92;100666.34;1764978;80;21596;-62
2021/04/11 05:31:32;;;;;;;21.60;14.68;;;;;;;7.90;44.92;100671.61;1784905;80;21148;-62
2021/04/11 05:34:01;;;;;;;24.05;16.15;;;;;;;8.09;44.20;100675.09;1769000;80;21189;-62
2021/04/11 05:36:39;;;;;;;22.35;15.08;;;;;;;8.28;43.88;100673.12;1766402;80;21738;-62
2021/04/11 05:39:40;;;;;;;23.87;16.10;;;;;;;8.46;44.04;100675.25;1763215;80;21168;-60
2021/04/11 05:42:19;;;;;;;27.67;15.15;;;;;;;8.59;42.98;100670.10;1763780;80;21676;-60
2021/04/11 05:45:38;;;;;;;28.07;15.98;;;;;;;8.73;42.22;100678.83;1772784;80;21141;-60
2021/04/11 05:48:46;;;;;;;21.42;15.23;;;;;;;8.85;42.23;100679.66;1788599;80;21136;-61
2021/04/11 05:51:26;;;;;;;25.17;15.08;;;;;;;8.96;41.79;100674.19;1732797;80;21157;-61
2021/04/11 05:54:10;;;;;;;21.42;14.98;;;;;;;9.21;41.58;100671.75;1738016;81;21210;-62
2021/04/11 05:56:43;;;;;;;22.93;15.10;;;;;;;9.40;40.77;100673.21;1693859;83;21228;-62
2021/04/11 05:59:25;;;;;;;22.58;14.68;;;;;;;9.55;41.47;100672.16;1693233;83;21656;-62
2021/04/11 06:01:59;;;;;;;24.10;15.20;;;;;;;9.79;41.40;100670.98;1728758;83;21623;-61
2021/04/11 06:04:38;;;;;;;25.40;15.30;;;;;;;10.00;40.13;100670.28;1704805;83;21252;-62
2021/04/11 06:07:21;;;;;;;24.45;15.65;;;;;;;10.18;40.08;100677.95;1701303;84;21201;-63
2021/04/11 06:10:00;;;;;;;27.48;16.02;;;;;;;10.34;40.34;100672.53;1701384;84;21369;-63
2021/04/11 06:12:42;;;;;;;21.12;14.00;;;;;;;10.56;40.55;100681.31;1740050;81;21652;-63
2021/04/11 06:15:21;;;;;;;22.00;13.90;;;;;;;10.88;39.84;100682.31;1778365;81;21133;-62
2021/04/11 06:17:48;;;;;;;20.37;13.10;;;;;;;11.15;38.95;100684.63;1778325;81;21333;-63
2021/04/11 06:20:16;;;;;;;19.15;13.45;;;;;;;11.45;37.04;100682.27;1773902;81;21117;-63
2021/04/11 06:23:22;;;;;;;21.10;14.40;;;;;;;11.67;36.04;100681.41;1776082;81;21183;-62
2021/04/11 06:26:13;;;;;;;22.52;13.98;;;;;;;11.76;36.22;100679.36;1774249;81;21106;-62
2021/04/11 06:29:13;;;;;;;20.35;12.33;;;;;;;11.85;37.41;100686.56;1768907;80;21166;-62
2021/04/11 06:31:49;;;;;;;19.10;11.57;;;;;;;12.08;35.30;100671.22;1773904;81;21145;-62
2021/04/11 06:34:23;;;;;;;16.02;11.18;;;;;;;12.28;34.79;100671.42;1776791;80;21199;-63
2021/04/11 06:36:54;;;;;;;16.90;11.18;;;;;;;12.42;34.72;100682.72;1767200;81;21680;-61
2021/04/11 06:39:27;;;;;;;20.15;11.63;;;;;;;12.61;34.70;100688.05;1747289;81;21223;-61
2021/04/11 06:42:30;;;;;;;15.93;10.65;;;;;;;12.69;33.92;100686.20;1759887;80;21193;-63
2021/04/11 06:45:27;;;;;;;14.68;9.85;;;;;;;12.92;34.40;100687.72;1763192;81;21589;-63
2021/04/11 06:48:36;;;;;;;17.67;10.32;;;;;;;13.27;34.78;100690.68;1753983;81;21187;-62
2021/04/11 06:51:32;;;;;;;18.48;9.65;;;;;;;13.77;31.91;100690.59;1736469;80;21197;-62
2021/04/11 06:54:47;;;;;;;13.50;8.68;;;;;;;14.14;33.37;100687.09;1765857;81;21608;-61
2021/04/11 06:57:32;;;;;;;14.68;9.48;;;;;;;14.53;30.63;100687.95;1769977;81;21648;-60
2021/04/11 07:00:25;;;;;;;19.00;9.23;;;;;;;14.78;31.14;100687.93;1768684;81;21276;-61
2021/04/11 07:03:16;;;;;;;12.28;8.33;;;;;;;15.00;31.02;100692.56;1753373;81;21118;-61
2021/04/11 07:06:01;;;;;;;13.60;8.15;;;;;;;15.32;31.00;100701.79;1773047;81;21114;-61
2021/04/11 07:09:00;;;;;;;12.40;8.65;;;;;;;15.51;30.01;100696.00;1768991;80;21198;-61
2021/04/11 07:11:56;;;;;;;15.23;9.10;;;;;;;15.74;29.70;100693.95;1759226;80;21516;-61
2021/04/11 07:14:58;;;;;;;16.50;10.20;;;;;;;15.98;27.85;100689.16;1759071;81;21680;-62
2021/04/11 07:18:03;;;;;;;13.58;7.45;;;;;;;16.14;28.43;100696.19;1754200;81;21110;-62
2021/04/11 07:20:48;;;;;;;10.20;7.30;;;;;;;16.27;26.14;100691.41;1757132;81;21138;-62
2021/04/11 07:23:47;;;;;;;11.28;7.00;;;;;;;16.15;26.46;100690.97;1764275;80;21157;-63
2021/04/11 07:26:55;;;;;;;13.25;9.00;;;;;;;16.06;26.50;100697.60;1751466;81;21142;-63
2021/04/11 07:29:53;;;;;;;12.87;6.80;;;;;;;15.97;26.21;100697.95;1761877;81;21157;-64
2021/04/11 07:32:45;;;;;;;10.68;6.03;;;;;;;16.02;26.93;100704.77;1754747;80;21287;-63
2021/04/11 07:35:43;;;;;;;9.55;6.10;;;;;;;16.11;26.47;100705.82;1771170;80;21153;-62
2021/04/11 07:38:31;;;;;;;8.35;5.92;;;;;;;16.13;26.22;100706.34;1769218;80;21149;-62
2021/04/11 07:41:30;;;;;;;9.95;6.10;;;;;;;16.22;25.92;100702.45;1766094;81;21106;-62
2021/04/11 07:44:14;;;;;;;12.35;7.37;;;;;;;16.12;25.75;100703.32;1775297;81;21670;-61
2021/04/11 07:47:21;;;;;;;9.80;6.08;;;;;;;16.35;25.08;100702.63;1772885;81;21308;-64
2021/04/11 07:50:10;;;;;;;10.50;6.90;;;;;;;16.56;25.58;100699.73;1772330;81;21129;-61
2021/04/11 07:53:30;;;;;;;9.65;5.35;;;;;;;16.85;25.54;100703.31;1724868;81;21387;-60
2021/04/11 07:56:21;;;;;;;7.25;4.58;;;;;;;17.03;23.63;100699.84;1748250;81;21161;-61
2021/04/11 07:59:20;;;;;;;8.73;4.67;;;;;;;17.08;23.74;100698.39;1758980;80;21375;-61
2021/04/11 08:02:34;;;;;;;7.47;4.78;;;;;;;17.04;23.48;100702.04;1751006;81;21648;-60
2021/04/11 08:05:14;;;;;;;7.90;4.85;;;;;;;17.12;23.85;100700.83;1753376;81;21311;-60
2021/04/11 08:08:13;;;;;;;8.55;4.70;;;;;;;17.23;23.07;100703.73;1742573;81;21181;-60
2021/04/11 08:11:07;;;;;;;7.83;5.00;;;;;;;17.23;24.31;100702.36;1769228;81;21122;-60
2021/04/11 08:14:00;;;;;;;7.37;4.55;;;;;;;17.23;22.67;100697.41;1762902;81;21311;-59
2021/04/11 08:17:24;;;;;;;7.08;4.37;;;;;;;17.25;22.14;100698.75;1764247;80;21142;-62
2021/04/11 08:20:06;;;;;;;11.08;7.50;;;;;;;17.12;21.61;100699.45;1760410;81;21835;-61
2021/04/11 08:22:58;;;;;;;10.40;7.55;;;;;;;16.77;22.99;100689.64;1750193;81;21129;-62
2021/04/11 08:25:49;;;;;;;11.18;7.67;;;;;;;16.58;22.94;100697.53;1756208;81;21153;-60
2021/04/11 08:29:04;;;;;;;10.82;6.80;;;;;;;16.51;24.45;100697.80;1750613;81;21326;-59
2021/04/11 08:31:59;;;;;;;9.40;6.60;;;;;;;16.65;24.16;100697.44;1750676;81;21185;-60
2021/04/11 08:34:44;;;;;;;9.23;5.78;;;;;;;16.86;24.79;100691.22;1771623;79;21157;-61
2021/04/11 08:37:41;;;;;;;8.35;5.37;;;;;;;16.91;23.34;100684.27;1758986;81;21319;-61
2021/04/11 08:40:35;;;;;;;8.20;4.95;;;;;;;16.97;22.78;100691.94;1743173;81;21191;-60
2021/04/11 08:43:30;;;;;;;8.78;5.08;;;;;;;16.64;22.47;100693.63;1754623;80;21281;-60
2021/04/11 08:46:23;;;;;;;7.10;4.95;;;;;;;16.36;22.24;100686.95;1770242;81;21146;-60
2021/04/11 08:49:08;;;;;;;8.20;4.90;;;;;;;16.06;22.43;100686.61;1747437;80;21732;-62
2021/04/11 08:52:16;;;;;;;8.83;5.10;;;;;;;15.94;23.45;100684.80;1746796;82;21366;-61
2021/04/11 08:55:11;;;;;;;9.45;4.92;;;;;;;16.00;23.24;100682.27;1760536;81;21153;-62
2021/04/11 08:58:09;;;;;;;6.00;4.42;;;;;;;16.07;23.37;100681.40;1714500;82;21929;-60
2021/04/11 09:01:11;;;;;;;23.25;9.65;;;;;;;16.18;23.64;100673.36;1755853;81;21667;-62
2021/04/11 09:04:12;;;;;;;21.62;9.30;;;;;;;16.32;24.29;100676.27;1740158;80;21153;-64
2021/04/11 09:07:26;;;;;;;7.58;5.62;;;;;;;16.23;23.90;100673.85;1746631;81;21307;-61
2021/04/11 09:10:50;;;;;;;8.65;6.12;;;;;;;16.01;23.78;100677.05;1745528;82;21177;-60
2021/04/11 09:13:29;;;;;;;7.65;5.75;;;;;;;16.04;23.89;100675.66;1746922;81;21662;-62
2021/04/11 09:16:32;;;;;;;8.83;5.78;;;;;;;16.12;23.78;100668.19;1745210;81;21118;-62
2021/04/11 09:19:24;;;;;;;8.48;5.72;;;;;;;16.32;24.33;100669.41;1748616;81;21299;-62
2021/04/11 09:22:00;;;;;;;9.30;5.97;;;;;;;16.44;23.88;100658.84;1775114;80;21150;-60
2021/04/11 09:24:38;;;;;;;8.90;5.70;;;;;;;16.50;23.45;100656.88;1750123;81;21177;-60
2021/04/11 09:27:27;;;;;;;10.05;5.92;;;;;;;16.53;24.95;100653.55;1756727;81;21899;-62
2021/04/11 09:30:26;;;;;;;10.08;6.05;;;;;;;16.55;23.87;100652.14;1754402;81;21264;-62
2021/04/11 09:33:14;;;;;;;7.72;5.40;;;;;;;16.52;24.11;100655.48;1719190;80;21173;-61
2021/04/11 09:36:06;;;;;;;12.07;6.72;;;;;;;16.49;24.21;100642.87;1755903;81;21122;-60
2021/04/11 09:39:04;;;;;;;12.25;6.15;;;;;;;16.61;25.94;100642.80;1746715;82;21156;-61
2021/04/11 09:42:09;;;;;;;12.20;5.80;;;;;;;16.73;24.83;100637.70;1758581;81;21562;-61
2021/04/11 09:45:07;;;;;;;10.78;5.70;;;;;;;16.95;24.76;100641.33;1687916;83;21793;-61
2021/04/11 09:48:04;;;;;;;8.05;5.67;;;;;;;17.11;24.22;100637.86;1685426;82;21180;-62
2021/04/11 09:50:57;;;;;;;7.10;5.53;;;;;;;17.30;23.95;100635.41;1756532;80;21629;-62
2021/04/11 09:54:04;;;;;;;7.15;6.10;;;;;;;17.34;23.11;100635.09;1772548;81;21154;-62
2021/04/11 09:57:11;;;;;;;9.20;5.87;;;;;;;17.14;22.99;100629.02;1769226;81;21653;-61
2021/04/11 09:59:52;;;;;;;11.93;6.33;;;;;;;17.09;23.25;100623.02;1765805;80;21149;-62
2021/04/11 10:02:59;;;;;;;12.05;7.50;;;;;;;17.15;23.46;100624.58;1751951;81;21597;-64
2021/04/11 10:06:10;;;;;;;11.75;7.30;;;;;;;17.23;24.05;100625.87;1750796;81;21249;-62
2021/04/11 10:09:07;;;;;;;8.55;5.80;;;;;;;17.33;22.89;100618.85;1742210;82;21731;-61
2021/04/11 10:11:49;;;;;;;11.73;7.67;;;;;;;17.44;23.52;100612.11;1758544;80;21130;-62
2021/04/11 10:14:37;;;;;;;11.43;7.40;;;;;;;17.57;23.76;100611.98;1752681;80;22120;-62
2021/04/11 10:17:48;;;;;;;11.00;6.90;;;;;;;17.76;23.30;100612.78;1758326;81;21145;-60
2021/04/11 10:20:32;;;;;;;51.28;35.88;;;;;;;17.66;22.22;100612.94;1758866;80;21154;-62
2021/04/11 10:23:33;;;;;;;12.60;8.53;;;;;;;17.53;22.96;100617.78;1754348;81;21161;-59
2021/04/11 10:26:07;;;;;;;10.65;7.85;;;;;;;17.60;22.96;100613.58;1744454;81;21146;-60
2021/04/11 10:28:50;;;;;;;15.78;10.82;;;;;;;17.77;22.73;100614.42;1776070;80;21130;-61
2021/04/11 10:31:44;;;;;;;8.63;6.40;;;;;;;17.90;22.60;100615.05;1740778;82;21324;-61
2021/04/11 10:34:26;;;;;;;10.40;6.47;;;;;;;17.91;22.19;100602.92;1751152;81;21157;-60
2021/04/11 10:37:20;;;;;;;12.40;7.97;;;;;;;17.94;22.05;100604.25;1746930;81;21174;-60
2021/04/11 10:40:20;;;;;;;10.65;6.90;;;;;;;18.03;23.76;100612.11;1766125;81;21130;-60
2021/04/11 10:42:57;;;;;;;12.10;6.60;;;;;;;18.06;21.63;100606.82;1775425;80;21298;-59
2021/04/11 10:45:32;;;;;;;12.45;7.33;;;;;;;18.01;22.93;100609.64;1731853;82;21554;-62
2021/04/11 10:48:20;;;;;;;8.65;6.67;;;;;;;18.05;22.85;100606.55;1746890;82;21207;-61
2021/04/11 10:51:31;;;;;;;9.98;7.62;;;;;;;18.09;22.44;100604.84;1715052;82;21283;-61
2021/04/11 10:54:48;;;;;;;11.63;7.10;;;;;;;17.92;22.49;100603.19;1747795;81;21840;-62
2021/04/11 10:57:43;;;;;;;10.90;6.08;;;;;;;17.81;21.41;100600.33;1676660;85;21177;-60
2021/04/11 11:00:16;;;;;;;11.28;7.03;;;;;;;17.73;23.10;100591.36;1678328;85;21194;-60
2021/04/11 11:03:26;;;;;;;18.60;11.88;;;;;;;17.82;23.18;100591.75;1713144;81;21173;-59
2021/04/11 11:06:40;;;;;;;12.45;6.92;;;;;;;17.82;22.98;100588.99;1759388;81;21569;-58
2021/04/11 11:09:24;;;;;;;9.18;6.70;;;;;;;17.64;22.04;100593.16;1756152;80;66654;-67
2021/04/11 11:12:19;;;;;;;12.10;6.72;;;;;;;17.53;22.88;100593.83;1691929;80;21783;-66
2021/04/11 11:15:13;;;;;;;8.78;6.53;;;;;;;17.53;21.55;100591.62;1713178;82;21320;-68
2021/04/11 11:18:15;;;;;;;9.73;6.42;;;;;;;17.51;22.34;100582.83;1717644;82;21234;-71
2021/04/11 11:23:43;;;;;;;12.37;6.78;;;;;;;17.72;22.96;100567.67;1763959;79;22786;-60
2021/04/11 11:26:46;;;;;;;10.80;7.45;;;;;;;17.85;22.31;100572.45;1732463;82;21635;-60
2021/04/11 11:29:46;;;;;;;13.60;6.50;;;;;;;17.89;21.96;100572.08;1734638;82;21211;-61
2021/04/11 11:32:46;;;;;;;11.63;7.70;;;;;;;17.91;21.59;100569.87;1716648;82;21591;-60
2021/04/11 11:35:15;;;;;;;11.28;6.90;;;;;;;17.81;21.44;100563.97;1746156;82;21665;-61
2021/04/11 11:38:09;;;;;;;11.30;8.58;;;;;;;17.94;23.17;100559.62;1728202;82;21580;-63
2021/04/11 11:41:04;;;;;;;7.45;5.78;;;;;;;18.04;22.53;100558.07;1736904;82;21158;-60
2021/04/11 11:44:08;;;;;;;21.27;14.25;;;;;;;18.04;21.63;100555.87;1787091;79;22708;-62
2021/04/11 11:46:47;;;;;;;31.37;18.40;;;;;;;17.66;22.19;100554.56;1769504;80;21283;-59
2021/04/11 11:49:44;;;;;;;31.45;17.32;;;;;;;17.56;21.70;100550.59;1765483;80;21786;-59
2021/04/11 11:52:47;;;;;;;19.27;13.05;;;;;;;17.65;21.89;100552.91;1769799;80;21292;-61
2021/04/11 11:55:28;;;;;;;13.08;7.22;;;;;;;17.70;21.88;100543.77;1770680;80;21456;-61
2021/04/11 11:58:19;;;;;;;202.30;148.13;;;;;;;17.82;21.94;100537.22;1765452;80;21179;-60
2021/04/11 12:00:55;;;;;;;21.70;15.72;;;;;;;17.87;22.04;100534.39;1764546;80;21162;-60
2021/04/11 12:03:34;;;;;;;24.15;16.60;;;;;;;17.87;21.05;100539.91;1752126;81;21178;-61
2021/04/11 12:06:23;;;;;;;20.12;15.13;;;;;;;17.73;20.76;100516.45;1776396;81;21138;-59
2021/04/11 12:09:12;;;;;;;;;;;;;;;17.78;20.86;100530.12;1779113;81;21589;-60
2021/04/11 12:13:10;;;;;;;8.25;6.25;;;;;;;17.75;20.27;100520.27;1783380;79;23141;-59
2021/04/11 12:16:00;;;;;;;9.40;6.33;;;;;;;17.69;22.72;100525.05;1749099;82;21593;-59
2021/04/11 12:18:36;;;;;;;7.92;5.62;;;;;;;17.74;21.16;100542.05;1742731;82;21881;-62
2021/04/11 12:21:15;;;;;;;21.45;13.00;;;;;;;17.68;20.24;100517.08;1745335;82;21150;-61
2021/04/11 12:24:00;;;;;;;10.23;6.03;;;;;;;17.64;20.60;100521.57;1742611;82;21303;-61
2021/04/11 12:26:30;;;;;;;9.98;5.90;;;;;;;17.68;20.93;100514.32;1739829;82;21172;-59
2021/04/11 12:29:07;;;;;;;10.10;6.50;;;;;;;17.71;21.15;100515.91;1721804;82;21687;-58
2021/04/11 12:31:53;;;;;;;9.08;5.58;;;;;;;17.85;21.37;100510.48;1737616;79;64339;-69
2021/04/11 12:35:07;;;;;;;9.53;6.83;;;;;;;17.94;20.90;100508.66;1699603;83;21124;-67
2021/04/11 12:37:43;;;;;;;14.43;6.78;;;;;;;17.96;20.56;100503.66;1713339;82;21211;-68
2021/04/11 12:40:44;;;;;;;9.73;7.08;;;;;;;17.85;20.64;100502.22;1675350;84;21642;-66